sensor_id;sensor_type;location;lat;lon;timestamp;temperature;humidity
8888;DHT22;4480;52.370;9.748;2022-12-07T00:01:48;4.30;99.90
8888;DHT22;4480;52.370;9.748;2022-12-07T00:04:16;4.30;99.90
8888;DHT22;4480;52.370;9.748;2022-12-07T00:06:45;4.40;99.90
8888;DHT22;4480;52.370;9.748;2022-12-07T00:09:15;4.40;99.90
8888;DHT22;4480;52.370;9.748;2022-12-07T00:11:43;4.40;99.90
8888;DHT22;4480;52.370;9.748;2022-12-07T00:14:12;4.40;99.90
8888;DHT22;4480;52.370;9.748;2022-12-07T00:16:39;4.40;99.90
8888;DHT22;4480;52.370;9.748;2022-12-07T00:19:07;4.50;99.90
8888;DHT22;4480;52.370;9.748;2022-12-07T00:21:35;4.50;99.90
8888;DHT22;4480;52.370;9.748;2022-12-07T00:24:03;4.50;99.90
8888;DHT22;4480;52.370;9.748;2022-12-07T00:26:33;4.50;99.90
8888;DHT22;4480;52.370;9.748;2022-12-07T00:29:02;4.50;99.90
8888;DHT22;4480;52.370;9.748;2022-12-07T00:31:31;4.50;99.90
8888;DHT22;4480;52.370;9.748;2022-12-07T00:34:00;4.50;99.90
8888;DHT22;4480;52.370;9.748;2022-12-07T00:36:28;4.50;99.90
8888;DHT22;4480;52.370;9.748;2022-12-07T00:38:55;4.60;99.90
8888;DHT22;4480;52.370;9.748;2022-12-07T00:41:26;4.50;99.90
8888;DHT22;4480;52.370;9.748;2022-12-07T00:43:54;4.50;99.90
8888;DHT22;4480;52.370;9.748;2022-12-07T00:46:21;4.50;99.90
8888;DHT22;4480;52.370;9.748;2022-12-07T00:48:49;4.60;99.90
8888;DHT22;4480;52.370;9.748;2022-12-07T00:51:17;4.60;99.90
8888;DHT22;4480;52.370;9.748;2022-12-07T00:53:45;4.60;99.90
8888;DHT22;4480;52.370;9.748;2022-12-07T00:56:13;4.60;99.90
8888;DHT22;4480;52.370;9.748;2022-12-07T00:58:40;4.60;99.90
8888;DHT22;4480;52.370;9.748;2022-12-07T01:01:10;4.60;99.90
8888;DHT22;4480;52.370;9.748;2022-12-07T01:03:37;4.60;99.90
8888;DHT22;4480;52.370;9.748;2022-12-07T01:06:05;4.70;99.90
8888;DHT22;4480;52.370;9.748;2022-12-07T01:08:32;4.60;99.90
8888;DHT22;4480;52.370;9.748;2022-12-07T01:10:59;4.70;99.90
8888;DHT22;4480;52.370;9.748;2022-12-07T01:13:27;4.70;99.90
8888;DHT22;4480;52.370;9.748;2022-12-07T01:15:57;4.70;99.90
8888;DHT22;4480;52.370;9.748;2022-12-07T01:18:27;4.70;99.90
8888;DHT22;4480;52.370;9.748;2022-12-07T01:20:58;4.70;99.90
8888;DHT22;4480;52.370;9.748;2022-12-07T01:23:25;4.70;99.90
8888;DHT22;4480;52.370;9.748;2022-12-07T01:25:55;4.70;99.90
8888;DHT22;4480;52.370;9.748;2022-12-07T01:28:21;4.70;99.90
8888;DHT22;4480;52.370;9.748;2022-12-07T01:30:55;4.70;99.90
8888;DHT22;4480;52.370;9.748;2022-12-07T01:33:22;4.70;99.90
8888;DHT22;4480;52.370;9.748;2022-12-07T01:35:50;4.70;99.90
8888;DHT22;4480;52.370;9.748;2022-12-07T01:38:17;4.70;99.90
8888;DHT22;4480;52.370;9.748;2022-12-07T01:40:44;4.60;99.90
8888;DHT22;4480;52.370;9.748;2022-12-07T01:43:15;4.60;99.90
8888;DHT22;4480;52.370;9.748;2022-12-07T01:45:42;4.60;99.90
8888;DHT22;4480;52.370;9.748;2022-12-07T01:48:11;4.60;99.90
8888;DHT22;4480;52.370;9.748;2022-12-07T01:50:40;4.60;99.90
8888;DHT22;4480;52.370;9.748;2022-12-07T01:53:10;4.60;99.90
8888;DHT22;4480;52.370;9.748;2022-12-07T01:55:40;4.60;99.90
8888;DHT22;4480;52.370;9.748;2022-12-07T01:58:08;4.50;99.90
8888;DHT22;4480;52.370;9.748;2022-12-07T02:00:35;4.50;99.90
8888;DHT22;4480;52.370;9.748;2022-12-07T02:03:05;4.50;99.90
8888;DHT22;4480;52.370;9.748;2022-12-07T02:05:34;4.40;99.90
8888;DHT22;4480;52.370;9.748;2022-12-07T02:08:02;4.40;99.90
8888;DHT22;4480;52.370;9.748;2022-12-07T02:10:31;4.30;99.90
8888;DHT22;4480;52.370;9.748;2022-12-07T02:13:01;4.30;99.90
8888;DHT22;4480;52.370;9.748;2022-12-07T02:15:34;4.30;99.90
8888;DHT22;4480;52.370;9.748;2022-12-07T02:18:07;4.30;99.90
8888;DHT22;4480;52.370;9.748;2022-12-07T02:20:38;4.30;99.90
8888;DHT22;4480;52.370;9.748;2022-12-07T02:23:37;4.30;99.90
8888;DHT22;4480;52.370;9.748;2022-12-07T02:26:28;4.30;99.90
8888;DHT22;4480;52.370;9.748;2022-12-07T02:29:20;4.20;99.90
8888;DHT22;4480;52.370;9.748;2022-12-07T02:31:55;4.20;99.90
8888;DHT22;4480;52.370;9.748;2022-12-07T02:34:30;4.20;99.90
8888;DHT22;4480;52.370;9.748;2022-12-07T02:37:02;4.20;99.90
8888;DHT22;4480;52.370;9.748;2022-12-07T02:39:34;4.10;99.90
8888;DHT22;4480;52.370;9.748;2022-12-07T02:42:10;4.20;99.90
8888;DHT22;4480;52.370;9.748;2022-12-07T02:44:42;4.10;99.90
8888;DHT22;4480;52.370;9.748;2022-12-07T02:47:12;4.10;99.90
8888;DHT22;4480;52.370;9.748;2022-12-07T02:49:39;4.10;99.90
8888;DHT22;4480;52.370;9.748;2022-12-07T02:52:06;4.00;99.90
8888;DHT22;4480;52.370;9.748;2022-12-07T02:54:33;4.00;99.90
8888;DHT22;4480;52.370;9.748;2022-12-07T02:57:07;4.00;99.90
8888;DHT22;4480;52.370;9.748;2022-12-07T02:59:46;4.00;99.90
8888;DHT22;4480;52.370;9.748;2022-12-07T03:02:21;4.10;99.90
8888;DHT22;4480;52.370;9.748;2022-12-07T03:04:58;4.10;99.90
8888;DHT22;4480;52.370;9.748;2022-12-07T03:07:39;4.20;99.90
8888;DHT22;4480;52.370;9.748;2022-12-07T03:10:16;4.20;99.90
8888;DHT22;4480;52.370;9.748;2022-12-07T03:12:49;4.20;99.90
8888;DHT22;4480;52.370;9.748;2022-12-07T03:15:25;4.20;99.90
8888;DHT22;4480;52.370;9.748;2022-12-07T03:17:55;4.20;99.90
8888;DHT22;4480;52.370;9.748;2022-12-07T03:20:25;4.20;99.90
8888;DHT22;4480;52.370;9.748;2022-12-07T03:22:54;4.20;99.90
8888;DHT22;4480;52.370;9.748;2022-12-07T03:25:21;4.30;99.90
8888;DHT22;4480;52.370;9.748;2022-12-07T03:27:52;4.30;99.90
8888;DHT22;4480;52.370;9.748;2022-12-07T03:30:24;4.30;99.90
8888;DHT22;4480;52.370;9.748;2022-12-07T03:32:59;4.20;99.90
8888;DHT22;4480;52.370;9.748;2022-12-07T03:35:31;4.20;99.90
8888;DHT22;4480;52.370;9.748;2022-12-07T03:38:02;4.20;99.90
8888;DHT22;4480;52.370;9.748;2022-12-07T03:40:35;4.20;99.90
8888;DHT22;4480;52.370;9.748;2022-12-07T03:43:03;4.20;99.90
8888;DHT22;4480;52.370;9.748;2022-12-07T03:45:38;4.20;99.90
8888;DHT22;4480;52.370;9.748;2022-12-07T03:48:11;4.20;99.90
8888;DHT22;4480;52.370;9.748;2022-12-07T03:50:43;4.20;99.90
8888;DHT22;4480;52.370;9.748;2022-12-07T03:53:14;4.20;99.90
8888;DHT22;4480;52.370;9.748;2022-12-07T03:55:43;4.20;99.90
8888;DHT22;4480;52.370;9.748;2022-12-07T03:58:13;4.20;99.90
8888;DHT22;4480;52.370;9.748;2022-12-07T04:00:44;4.10;99.90
8888;DHT22;4480;52.370;9.748;2022-12-07T04:03:11;4.10;99.90
8888;DHT22;4480;52.370;9.748;2022-12-07T04:05:38;4.10;99.90
8888;DHT22;4480;52.370;9.748;2022-12-07T04:10:40;4.10;99.90
8888;DHT22;4480;52.370;9.748;2022-12-07T04:13:07;4.10;99.90
8888;DHT22;4480;52.370;9.748;2022-12-07T04:15:34;4.00;99.90
8888;DHT22;4480;52.370;9.748;2022-12-07T04:18:01;4.00;99.90
8888;DHT22;4480;52.370;9.748;2022-12-07T04:20:28;4.00;99.90
8888;DHT22;4480;52.370;9.748;2022-12-07T04:22:54;4.00;99.90
8888;DHT22;4480;52.370;9.748;2022-12-07T04:25:21;4.00;99.90
8888;DHT22;4480;52.370;9.748;2022-12-07T04:27:49;4.00;99.90
8888;DHT22;4480;52.370;9.748;2022-12-07T04:30:16;4.00;99.90
8888;DHT22;4480;52.370;9.748;2022-12-07T04:32:43;3.90;99.90
8888;DHT22;4480;52.370;9.748;2022-12-07T04:35:10;3.90;99.90
8888;DHT22;4480;52.370;9.748;2022-12-07T04:37:36;4.00;99.90
8888;DHT22;4480;52.370;9.748;2022-12-07T04:40:06;4.00;99.90
8888;DHT22;4480;52.370;9.748;2022-12-07T04:42:34;3.90;99.90
8888;DHT22;4480;52.370;9.748;2022-12-07T04:45:02;3.90;99.90
8888;DHT22;4480;52.370;9.748;2022-12-07T04:47:29;4.00;99.90
8888;DHT22;4480;52.370;9.748;2022-12-07T04:49:56;4.00;99.90
8888;DHT22;4480;52.370;9.748;2022-12-07T04:52:22;4.00;99.90
8888;DHT22;4480;52.370;9.748;2022-12-07T04:54:49;4.00;99.90
8888;DHT22;4480;52.370;9.748;2022-12-07T04:57:16;4.00;99.90
8888;DHT22;4480;52.370;9.748;2022-12-07T04:59:43;3.90;99.90
8888;DHT22;4480;52.370;9.748;2022-12-07T05:02:11;3.90;99.90
8888;DHT22;4480;52.370;9.748;2022-12-07T05:04:37;3.90;99.90
8888;DHT22;4480;52.370;9.748;2022-12-07T05:07:04;3.90;99.90
8888;DHT22;4480;52.370;9.748;2022-12-07T05:09:31;3.90;99.90
8888;DHT22;4480;52.370;9.748;2022-12-07T05:11:58;3.90;99.90
8888;DHT22;4480;52.370;9.748;2022-12-07T05:14:24;3.80;99.90
8888;DHT22;4480;52.370;9.748;2022-12-07T05:16:51;3.80;99.90
8888;DHT22;4480;52.370;9.748;2022-12-07T05:19:20;3.80;99.90
8888;DHT22;4480;52.370;9.748;2022-12-07T05:21:47;3.80;99.90
8888;DHT22;4480;52.370;9.748;2022-12-07T05:24:15;3.70;99.90
8888;DHT22;4480;52.370;9.748;2022-12-07T05:26:43;3.70;99.90
8888;DHT22;4480;52.370;9.748;2022-12-07T05:29:11;3.70;99.90
8888;DHT22;4480;52.370;9.748;2022-12-07T05:31:38;3.60;99.90
8888;DHT22;4480;52.370;9.748;2022-12-07T05:34:05;3.60;99.90
8888;DHT22;4480;52.370;9.748;2022-12-07T05:36:33;3.60;99.90
8888;DHT22;4480;52.370;9.748;2022-12-07T05:39:00;3.60;99.90
8888;DHT22;4480;52.370;9.748;2022-12-07T05:41:27;3.50;99.90
8888;DHT22;4480;52.370;9.748;2022-12-07T05:44:14;3.50;99.90
8888;DHT22;4480;52.370;9.748;2022-12-07T05:46:40;3.50;99.90
8888;DHT22;4480;52.370;9.748;2022-12-07T05:49:07;3.50;99.90
8888;DHT22;4480;52.370;9.748;2022-12-07T05:51:35;3.60;99.90
8888;DHT22;4480;52.370;9.748;2022-12-07T05:54:02;3.60;99.90
8888;DHT22;4480;52.370;9.748;2022-12-07T05:56:29;3.60;99.90
8888;DHT22;4480;52.370;9.748;2022-12-07T05:58:56;3.60;99.90
8888;DHT22;4480;52.370;9.748;2022-12-07T06:01:40;3.60;99.90
8888;DHT22;4480;52.370;9.748;2022-12-07T06:04:07;3.60;99.90
8888;DHT22;4480;52.370;9.748;2022-12-07T06:06:35;3.70;99.90
8888;DHT22;4480;52.370;9.748;2022-12-07T06:09:03;3.60;99.90
8888;DHT22;4480;52.370;9.748;2022-12-07T06:11:34;3.70;99.90
8888;DHT22;4480;52.370;9.748;2022-12-07T06:14:18;3.70;99.90
8888;DHT22;4480;52.370;9.748;2022-12-07T06:16:45;3.70;99.90
8888;DHT22;4480;52.370;9.748;2022-12-07T06:19:12;3.70;99.90
8888;DHT22;4480;52.370;9.748;2022-12-07T06:21:40;3.70;99.90
8888;DHT22;4480;52.370;9.748;2022-12-07T06:24:08;3.70;99.90
8888;DHT22;4480;52.370;9.748;2022-12-07T06:26:35;3.70;99.90
8888;DHT22;4480;52.370;9.748;2022-12-07T06:29:02;3.70;99.90
8888;DHT22;4480;52.370;9.748;2022-12-07T06:31:29;3.70;99.90
8888;DHT22;4480;52.370;9.748;2022-12-07T06:33:57;3.70;99.90
8888;DHT22;4480;52.370;9.748;2022-12-07T06:36:24;3.70;99.90
8888;DHT22;4480;52.370;9.748;2022-12-07T06:38:52;3.70;99.90
8888;DHT22;4480;52.370;9.748;2022-12-07T06:41:19;3.70;99.90
8888;DHT22;4480;52.370;9.748;2022-12-07T06:43:46;3.70;99.90
8888;DHT22;4480;52.370;9.748;2022-12-07T06:46:13;3.80;99.90
8888;DHT22;4480;52.370;9.748;2022-12-07T06:48:40;3.70;99.90
8888;DHT22;4480;52.370;9.748;2022-12-07T06:51:07;3.70;99.90
8888;DHT22;4480;52.370;9.748;2022-12-07T06:53:34;3.70;99.90
8888;DHT22;4480;52.370;9.748;2022-12-07T06:56:03;3.70;99.90
8888;DHT22;4480;52.370;9.748;2022-12-07T06:58:30;3.70;99.90
8888;DHT22;4480;52.370;9.748;2022-12-07T07:00:57;3.60;99.90
8888;DHT22;4480;52.370;9.748;2022-12-07T07:03:23;3.60;99.90
8888;DHT22;4480;52.370;9.748;2022-12-07T07:05:50;3.60;99.90
8888;DHT22;4480;52.370;9.748;2022-12-07T07:08:17;3.60;99.90
8888;DHT22;4480;52.370;9.748;2022-12-07T07:10:44;3.60;99.90
8888;DHT22;4480;52.370;9.748;2022-12-07T07:13:12;3.60;99.90
8888;DHT22;4480;52.370;9.748;2022-12-07T07:15:38;3.50;99.90
8888;DHT22;4480;52.370;9.748;2022-12-07T07:18:05;3.50;99.90
8888;DHT22;4480;52.370;9.748;2022-12-07T07:20:32;3.50;99.90
8888;DHT22;4480;52.370;9.748;2022-12-07T07:22:59;3.50;99.90
8888;DHT22;4480;52.370;9.748;2022-12-07T07:25:25;3.50;99.90
8888;DHT22;4480;52.370;9.748;2022-12-07T07:27:52;3.50;99.90
8888;DHT22;4480;52.370;9.748;2022-12-07T07:30:20;3.50;99.90
8888;DHT22;4480;52.370;9.748;2022-12-07T07:32:48;3.50;99.90
8888;DHT22;4480;52.370;9.748;2022-12-07T07:35:15;3.50;99.90
8888;DHT22;4480;52.370;9.748;2022-12-07T07:37:42;3.60;99.90
8888;DHT22;4480;52.370;9.748;2022-12-07T07:40:10;3.60;99.90
8888;DHT22;4480;52.370;9.748;2022-12-07T07:42:36;3.60;99.90
8888;DHT22;4480;52.370;9.748;2022-12-07T07:45:04;3.60;99.90
8888;DHT22;4480;52.370;9.748;2022-12-07T07:47:32;3.60;99.90
8888;DHT22;4480;52.370;9.748;2022-12-07T07:49:59;3.60;99.90
8888;DHT22;4480;52.370;9.748;2022-12-07T07:52:26;3.60;99.90
8888;DHT22;4480;52.370;9.748;2022-12-07T07:54:53;3.60;99.90
8888;DHT22;4480;52.370;9.748;2022-12-07T07:57:19;3.60;99.90
8888;DHT22;4480;52.370;9.748;2022-12-07T07:59:46;3.60;99.90
8888;DHT22;4480;52.370;9.748;2022-12-07T08:02:14;3.60;99.90
8888;DHT22;4480;52.370;9.748;2022-12-07T08:04:43;3.60;99.90
8888;DHT22;4480;52.370;9.748;2022-12-07T08:07:11;3.60;99.90
8888;DHT22;4480;52.370;9.748;2022-12-07T08:09:38;3.60;99.90
8888;DHT22;4480;52.370;9.748;2022-12-07T08:12:05;3.70;99.90
8888;DHT22;4480;52.370;9.748;2022-12-07T08:14:33;3.70;99.90
8888;DHT22;4480;52.370;9.748;2022-12-07T08:17:00;3.70;99.90
8888;DHT22;4480;52.370;9.748;2022-12-07T08:19:27;3.70;99.90
8888;DHT22;4480;52.370;9.748;2022-12-07T08:21:55;3.80;99.90
8888;DHT22;4480;52.370;9.748;2022-12-07T08:24:22;3.80;99.90
8888;DHT22;4480;52.370;9.748;2022-12-07T08:26:50;3.80;99.90
8888;DHT22;4480;52.370;9.748;2022-12-07T08:29:17;3.80;99.90
8888;DHT22;4480;52.370;9.748;2022-12-07T08:31:44;3.90;99.90
8888;DHT22;4480;52.370;9.748;2022-12-07T08:34:11;3.90;99.90
8888;DHT22;4480;52.370;9.748;2022-12-07T08:36:38;3.90;99.90
8888;DHT22;4480;52.370;9.748;2022-12-07T08:39:06;3.90;99.90
8888;DHT22;4480;52.370;9.748;2022-12-07T08:41:33;3.90;99.90
8888;DHT22;4480;52.370;9.748;2022-12-07T08:44:00;3.90;99.90
8888;DHT22;4480;52.370;9.748;2022-12-07T08:46:31;4.00;99.90
8888;DHT22;4480;52.370;9.748;2022-12-07T08:49:03;4.00;99.90
8888;DHT22;4480;52.370;9.748;2022-12-07T08:51:31;4.00;99.90
8888;DHT22;4480;52.370;9.748;2022-12-07T08:53:59;4.00;99.90
8888;DHT22;4480;52.370;9.748;2022-12-07T08:56:29;4.00;99.90
8888;DHT22;4480;52.370;9.748;2022-12-07T08:58:55;4.10;99.90
8888;DHT22;4480;52.370;9.748;2022-12-07T09:01:23;4.10;99.90
8888;DHT22;4480;52.370;9.748;2022-12-07T09:03:50;4.10;99.90
8888;DHT22;4480;52.370;9.748;2022-12-07T09:06:17;4.10;99.90
8888;DHT22;4480;52.370;9.748;2022-12-07T09:08:46;4.10;99.90
8888;DHT22;4480;52.370;9.748;2022-12-07T09:11:13;4.00;99.90
8888;DHT22;4480;52.370;9.748;2022-12-07T09:13:41;4.00;99.90
8888;DHT22;4480;52.370;9.748;2022-12-07T09:16:08;4.00;99.90
8888;DHT22;4480;52.370;9.748;2022-12-07T09:18:35;4.00;99.90
8888;DHT22;4480;52.370;9.748;2022-12-07T09:21:01;4.00;99.90
8888;DHT22;4480;52.370;9.748;2022-12-07T09:23:28;4.00;99.90
8888;DHT22;4480;52.370;9.748;2022-12-07T09:25:58;4.00;99.90
8888;DHT22;4480;52.370;9.748;2022-12-07T09:28:25;4.10;99.90
8888;DHT22;4480;52.370;9.748;2022-12-07T09:30:53;4.10;99.90
8888;DHT22;4480;52.370;9.748;2022-12-07T09:33:20;4.20;99.90
8888;DHT22;4480;52.370;9.748;2022-12-07T09:35:47;4.20;99.90
8888;DHT22;4480;52.370;9.748;2022-12-07T09:38:14;4.30;99.90
8888;DHT22;4480;52.370;9.748;2022-12-07T09:40:41;4.30;99.90
8888;DHT22;4480;52.370;9.748;2022-12-07T09:43:13;4.30;99.90
8888;DHT22;4480;52.370;9.748;2022-12-07T09:45:40;4.30;99.90
8888;DHT22;4480;52.370;9.748;2022-12-07T09:48:15;4.40;99.90
8888;DHT22;4480;52.370;9.748;2022-12-07T09:50:43;4.40;99.90
8888;DHT22;4480;52.370;9.748;2022-12-07T09:53:13;4.50;99.90
8888;DHT22;4480;52.370;9.748;2022-12-07T09:55:43;4.60;99.90
8888;DHT22;4480;52.370;9.748;2022-12-07T09:58:15;4.70;99.90
8888;DHT22;4480;52.370;9.748;2022-12-07T10:00:44;4.80;99.90
8888;DHT22;4480;52.370;9.748;2022-12-07T10:03:12;4.80;99.90
8888;DHT22;4480;52.370;9.748;2022-12-07T10:05:43;4.90;99.90
8888;DHT22;4480;52.370;9.748;2022-12-07T10:08:11;4.90;99.90
8888;DHT22;4480;52.370;9.748;2022-12-07T10:10:38;4.80;99.90
8888;DHT22;4480;52.370;9.748;2022-12-07T10:13:08;4.80;99.90
8888;DHT22;4480;52.370;9.748;2022-12-07T10:15:45;4.90;99.90
8888;DHT22;4480;52.370;9.748;2022-12-07T10:18:28;5.00;99.90
8888;DHT22;4480;52.370;9.748;2022-12-07T10:21:05;5.10;99.90
8888;DHT22;4480;52.370;9.748;2022-12-07T10:23:34;5.20;99.90
8888;DHT22;4480;52.370;9.748;2022-12-07T10:26:20;5.20;99.90
8888;DHT22;4480;52.370;9.748;2022-12-07T10:28:47;5.30;99.90
8888;DHT22;4480;52.370;9.748;2022-12-07T10:31:17;5.20;99.90
8888;DHT22;4480;52.370;9.748;2022-12-07T10:33:51;5.10;99.90
8888;DHT22;4480;52.370;9.748;2022-12-07T10:36:21;5.00;99.90
8888;DHT22;4480;52.370;9.748;2022-12-07T10:38:51;5.00;99.90
8888;DHT22;4480;52.370;9.748;2022-12-07T10:41:17;4.90;99.90
8888;DHT22;4480;52.370;9.748;2022-12-07T10:43:51;4.90;99.90
8888;DHT22;4480;52.370;9.748;2022-12-07T10:49:40;4.90;99.90
8888;DHT22;4480;52.370;9.748;2022-12-07T10:52:18;4.90;99.90
8888;DHT22;4480;52.370;9.748;2022-12-07T10:54:54;4.90;99.90
8888;DHT22;4480;52.370;9.748;2022-12-07T10:57:37;4.90;99.90
8888;DHT22;4480;52.370;9.748;2022-12-07T11:00:18;5.00;99.90
8888;DHT22;4480;52.370;9.748;2022-12-07T11:03:05;4.90;99.90
8888;DHT22;4480;52.370;9.748;2022-12-07T11:05:39;4.90;99.90
8888;DHT22;4480;52.370;9.748;2022-12-07T11:08:17;4.70;99.90
8888;DHT22;4480;52.370;9.748;2022-12-07T11:10:52;4.70;99.90
8888;DHT22;4480;52.370;9.748;2022-12-07T11:13:28;4.60;99.90
8888;DHT22;4480;52.370;9.748;2022-12-07T11:16:24;4.60;99.90
8888;DHT22;4480;52.370;9.748;2022-12-07T11:19:04;4.50;99.90
8888;DHT22;4480;52.370;9.748;2022-12-07T11:21:39;4.40;99.90
8888;DHT22;4480;52.370;9.748;2022-12-07T11:24:12;4.40;99.90
8888;DHT22;4480;52.370;9.748;2022-12-07T11:27:05;4.20;99.90
8888;DHT22;4480;52.370;9.748;2022-12-07T11:29:43;4.10;99.90
8888;DHT22;4480;52.370;9.748;2022-12-07T11:32:17;3.90;99.90
8888;DHT22;4480;52.370;9.748;2022-12-07T11:34:54;3.70;99.90
8888;DHT22;4480;52.370;9.748;2022-12-07T11:37:30;3.50;99.90
8888;DHT22;4480;52.370;9.748;2022-12-07T11:40:01;3.40;99.90
8888;DHT22;4480;52.370;9.748;2022-12-07T11:42:33;3.30;99.90
8888;DHT22;4480;52.370;9.748;2022-12-07T11:45:03;3.30;99.90
8888;DHT22;4480;52.370;9.748;2022-12-07T11:47:40;3.30;99.90
8888;DHT22;4480;52.370;9.748;2022-12-07T11:50:21;3.30;99.90
8888;DHT22;4480;52.370;9.748;2022-12-07T11:52:56;3.30;99.90
8888;DHT22;4480;52.370;9.748;2022-12-07T11:55:29;3.40;99.90
8888;DHT22;4480;52.370;9.748;2022-12-07T11:58:04;3.40;99.90
8888;DHT22;4480;52.370;9.748;2022-12-07T12:00:35;3.50;99.90
8888;DHT22;4480;52.370;9.748;2022-12-07T12:03:08;3.60;99.90
8888;DHT22;4480;52.370;9.748;2022-12-07T12:05:39;3.60;99.90
8888;DHT22;4480;52.370;9.748;2022-12-07T12:08:13;3.80;99.90
8888;DHT22;4480;52.370;9.748;2022-12-07T12:10:51;3.80;99.90
8888;DHT22;4480;52.370;9.748;2022-12-07T12:13:46;3.90;99.90
8888;DHT22;4480;52.370;9.748;2022-12-07T12:16:35;4.00;99.90
8888;DHT22;4480;52.370;9.748;2022-12-07T12:19:15;4.10;99.90
8888;DHT22;4480;52.370;9.748;2022-12-07T12:21:47;4.30;99.90
8888;DHT22;4480;52.370;9.748;2022-12-07T12:24:19;4.40;99.90
8888;DHT22;4480;52.370;9.748;2022-12-07T12:26:51;4.50;99.90
8888;DHT22;4480;52.370;9.748;2022-12-07T12:29:22;4.50;99.90
8888;DHT22;4480;52.370;9.748;2022-12-07T12:32:07;4.60;99.90
8888;DHT22;4480;52.370;9.748;2022-12-07T12:34:51;4.60;99.90
8888;DHT22;4480;52.370;9.748;2022-12-07T12:37:39;4.60;99.90
8888;DHT22;4480;52.370;9.748;2022-12-07T12:43:46;4.60;99.90
8888;DHT22;4480;52.370;9.748;2022-12-07T12:46:47;4.60;99.90
8888;DHT22;4480;52.370;9.748;2022-12-07T12:49:34;4.70;99.90
8888;DHT22;4480;52.370;9.748;2022-12-07T12:55:14;4.70;99.90
8888;DHT22;4480;52.370;9.748;2022-12-07T12:57:44;4.60;99.90
8888;DHT22;4480;52.370;9.748;2022-12-07T13:00:19;4.60;99.90
8888;DHT22;4480;52.370;9.748;2022-12-07T13:02:50;4.60;99.90
8888;DHT22;4480;52.370;9.748;2022-12-07T13:05:19;4.60;99.90
8888;DHT22;4480;52.370;9.748;2022-12-07T13:07:51;4.60;99.90
8888;DHT22;4480;52.370;9.748;2022-12-07T13:10:38;4.70;99.90
8888;DHT22;4480;52.370;9.748;2022-12-07T13:13:29;4.80;99.90
8888;DHT22;4480;52.370;9.748;2022-12-07T13:16:37;4.80;99.90
8888;DHT22;4480;52.370;9.748;2022-12-07T13:25:11;4.90;99.90
8888;DHT22;4480;52.370;9.748;2022-12-07T13:27:41;4.90;99.90
8888;DHT22;4480;52.370;9.748;2022-12-07T13:30:14;4.90;99.90
8888;DHT22;4480;52.370;9.748;2022-12-07T13:32:43;4.80;99.90
8888;DHT22;4480;52.370;9.748;2022-12-07T13:35:34;4.80;99.90
8888;DHT22;4480;52.370;9.748;2022-12-07T13:38:05;4.70;99.90
8888;DHT22;4480;52.370;9.748;2022-12-07T13:40:32;4.70;99.90
8888;DHT22;4480;52.370;9.748;2022-12-07T13:43:12;4.80;99.90
8888;DHT22;4480;52.370;9.748;2022-12-07T13:45:41;4.70;99.90
8888;DHT22;4480;52.370;9.748;2022-12-07T13:48:20;4.70;99.90
8888;DHT22;4480;52.370;9.748;2022-12-07T13:50:53;4.70;99.90
8888;DHT22;4480;52.370;9.748;2022-12-07T13:53:21;4.70;99.90
8888;DHT22;4480;52.370;9.748;2022-12-07T13:55:49;4.80;99.90
8888;DHT22;4480;52.370;9.748;2022-12-07T13:58:16;4.70;99.90
8888;DHT22;4480;52.370;9.748;2022-12-07T14:00:43;4.70;99.90
8888;DHT22;4480;52.370;9.748;2022-12-07T14:03:27;4.70;99.90
8888;DHT22;4480;52.370;9.748;2022-12-07T14:06:25;4.70;99.90
8888;DHT22;4480;52.370;9.748;2022-12-07T14:09:08;4.70;99.90
8888;DHT22;4480;52.370;9.748;2022-12-07T14:11:35;4.70;99.90
8888;DHT22;4480;52.370;9.748;2022-12-07T14:14:02;4.60;99.90
8888;DHT22;4480;52.370;9.748;2022-12-07T14:16:31;4.70;99.90
8888;DHT22;4480;52.370;9.748;2022-12-07T14:19:01;4.60;99.90
8888;DHT22;4480;52.370;9.748;2022-12-07T14:21:30;4.70;99.90
8888;DHT22;4480;52.370;9.748;2022-12-07T14:24:17;4.70;99.90
8888;DHT22;4480;52.370;9.748;2022-12-07T14:26:44;4.70;99.90
8888;DHT22;4480;52.370;9.748;2022-12-07T14:29:27;4.60;99.90
8888;DHT22;4480;52.370;9.748;2022-12-07T14:31:57;4.60;99.90
8888;DHT22;4480;52.370;9.748;2022-12-07T14:34:25;4.60;99.90
8888;DHT22;4480;52.370;9.748;2022-12-07T14:36:52;4.70;99.90
8888;DHT22;4480;52.370;9.748;2022-12-07T14:39:19;4.60;99.90
8888;DHT22;4480;52.370;9.748;2022-12-07T14:41:46;4.60;99.90
8888;DHT22;4480;52.370;9.748;2022-12-07T14:44:20;4.60;99.90
8888;DHT22;4480;52.370;9.748;2022-12-07T14:46:48;4.60;99.90
8888;DHT22;4480;52.370;9.748;2022-12-07T14:49:15;4.50;99.90
8888;DHT22;4480;52.370;9.748;2022-12-07T14:51:45;4.50;99.90
8888;DHT22;4480;52.370;9.748;2022-12-07T14:54:15;4.50;99.90
8888;DHT22;4480;52.370;9.748;2022-12-07T14:56:43;4.40;99.90
8888;DHT22;4480;52.370;9.748;2022-12-07T14:59:11;4.40;99.90
8888;DHT22;4480;52.370;9.748;2022-12-07T15:01:38;4.40;99.90
8888;DHT22;4480;52.370;9.748;2022-12-07T15:04:05;4.40;99.90
8888;DHT22;4480;52.370;9.748;2022-12-07T15:06:32;4.30;99.90
8888;DHT22;4480;52.370;9.748;2022-12-07T15:09:01;4.30;99.90
8888;DHT22;4480;52.370;9.748;2022-12-07T15:11:28;4.20;99.90
8888;DHT22;4480;52.370;9.748;2022-12-07T15:13:55;4.20;99.90
8888;DHT22;4480;52.370;9.748;2022-12-07T15:16:39;4.10;99.90
8888;DHT22;4480;52.370;9.748;2022-12-07T15:19:08;4.10;99.90
8888;DHT22;4480;52.370;9.748;2022-12-07T15:21:36;4.00;99.90
8888;DHT22;4480;52.370;9.748;2022-12-07T15:24:05;4.00;99.90
8888;DHT22;4480;52.370;9.748;2022-12-07T15:26:32;4.00;99.90
8888;DHT22;4480;52.370;9.748;2022-12-07T15:28:59;4.00;99.90
8888;DHT22;4480;52.370;9.748;2022-12-07T15:31:26;3.90;99.90
8888;DHT22;4480;52.370;9.748;2022-12-07T15:33:52;3.90;99.90
8888;DHT22;4480;52.370;9.748;2022-12-07T15:36:22;3.90;99.90
8888;DHT22;4480;52.370;9.748;2022-12-07T15:38:50;3.90;99.90
8888;DHT22;4480;52.370;9.748;2022-12-07T15:41:18;3.90;99.90
8888;DHT22;4480;52.370;9.748;2022-12-07T15:43:45;3.90;99.90
8888;DHT22;4480;52.370;9.748;2022-12-07T15:46:30;3.80;99.90
8888;DHT22;4480;52.370;9.748;2022-12-07T15:48:57;3.80;99.90
8888;DHT22;4480;52.370;9.748;2022-12-07T15:51:24;3.80;99.90
8888;DHT22;4480;52.370;9.748;2022-12-07T15:53:51;3.80;99.90
8888;DHT22;4480;52.370;9.748;2022-12-07T15:56:19;3.70;99.90
8888;DHT22;4480;52.370;9.748;2022-12-07T15:58:46;3.70;99.90
8888;DHT22;4480;52.370;9.748;2022-12-07T16:01:14;3.70;99.90
8888;DHT22;4480;52.370;9.748;2022-12-07T16:03:41;3.70;99.90
8888;DHT22;4480;52.370;9.748;2022-12-07T16:06:08;3.70;99.90
8888;DHT22;4480;52.370;9.748;2022-12-07T16:08:35;3.70;99.90
8888;DHT22;4480;52.370;9.748;2022-12-07T16:11:04;3.70;99.90
8888;DHT22;4480;52.370;9.748;2022-12-07T16:13:33;3.70;99.90
8888;DHT22;4480;52.370;9.748;2022-12-07T16:16:03;3.70;99.90
8888;DHT22;4480;52.370;9.748;2022-12-07T16:18:30;3.70;99.90
8888;DHT22;4480;52.370;9.748;2022-12-07T16:20:57;3.70;99.90
8888;DHT22;4480;52.370;9.748;2022-12-07T16:23:23;3.70;99.90
8888;DHT22;4480;52.370;9.748;2022-12-07T16:25:50;3.70;99.90
8888;DHT22;4480;52.370;9.748;2022-12-07T16:28:17;3.70;99.90
8888;DHT22;4480;52.370;9.748;2022-12-07T16:30:45;3.60;99.90
8888;DHT22;4480;52.370;9.748;2022-12-07T16:33:12;3.70;99.90
8888;DHT22;4480;52.370;9.748;2022-12-07T16:35:39;3.60;99.90
8888;DHT22;4480;52.370;9.748;2022-12-07T16:38:07;3.70;99.90
8888;DHT22;4480;52.370;9.748;2022-12-07T16:40:34;3.70;99.90
8888;DHT22;4480;52.370;9.748;2022-12-07T16:43:01;3.70;99.90
8888;DHT22;4480;52.370;9.748;2022-12-07T16:45:27;3.80;99.90
8888;DHT22;4480;52.370;9.748;2022-12-07T16:47:55;3.80;99.90
8888;DHT22;4480;52.370;9.748;2022-12-07T16:50:22;3.80;99.90
8888;DHT22;4480;52.370;9.748;2022-12-07T16:52:49;3.80;99.90
8888;DHT22;4480;52.370;9.748;2022-12-07T16:55:16;3.80;99.90
8888;DHT22;4480;52.370;9.748;2022-12-07T17:00:16;3.80;99.90